Time;durP1;ratioP1;P1;durP2;ratioP2;P2;SDS_P1;SDS_P2;PMS_P1;PMS_P2;Temp;Humidity;BMP_temperature;BMP_pressure;BME280_temperature;BME280_humidity;BME280_pressure;Samples;Min_cycle;Max_cycle;Signal;HPM_P1;HPM_P2
2021/01/15 00:01:09;;;;;;;6.78;4.78;;;;;;;2.93;82.86;101313.25;5115095;28;20059;-63
2021/01/15 00:03:38;;;;;;;6.78;5.32;;;;;;;2.95;83.45;101327.44;5108340;28;20052;-65
2021/01/15 00:06:08;;;;;;;7.72;5.72;;;;;;;3.18;82.60;101349.00;5100108;28;20054;-64
2021/01/15 00:08:38;;;;;;;7.90;5.60;;;;;;;3.22;81.97;101328.41;5112912;28;20044;-64
2021/01/15 00:11:13;;;;;;;8.95;7.03;;;;;;;3.16;82.53;101317.66;5097881;28;20051;-63
2021/01/15 00:13:41;;;;;;;9.27;7.30;;;;;;;3.33;82.75;101334.78;5110926;28;20512;-64
2021/01/15 00:16:25;;;;;;;9.02;6.70;;;;;;;3.24;81.95;101360.81;5113618;28;20415;-65
2021/01/15 00:18:54;;;;;;;10.50;8.48;;;;;;;3.03;84.42;101351.47;5125049;27;20059;-65
2021/01/15 00:21:28;;;;;;;11.65;7.80;;;;;;;2.82;84.44;101367.75;5099669;28;20048;-64
2021/01/15 00:24:05;;;;;;;12.43;8.50;;;;;;;2.87;85.12;101363.22;5100123;28;20059;-67
2021/01/15 00:26:34;;;;;;;11.05;8.45;;;;;;;2.66;85.92;101363.94;5120435;27;20051;-64
2021/01/15 00:29:01;;;;;;;10.43;7.63;;;;;;;2.79;85.61;101379.94;5089469;28;20126;-65
2021/01/15 00:31:31;;;;;;;11.90;9.32;;;;;;;3.03;85.18;101372.44;5084079;28;20047;-66
2021/01/15 00:33:59;;;;;;;10.55;8.10;;;;;;;3.10;84.08;101375.84;5108087;28;20048;-62
2021/01/15 00:36:26;;;;;;;12.68;7.97;;;;;;;2.73;84.98;101372.78;5094159;28;20052;-65
2021/01/15 00:38:53;;;;;;;11.02;8.20;;;;;;;2.67;85.12;101378.38;5084914;28;20396;-67
2021/01/15 00:41:20;;;;;;;11.90;9.02;;;;;;;2.86;85.12;101390.69;5114618;28;20054;-66
2021/01/15 00:43:47;;;;;;;11.63;9.23;;;;;;;2.75;85.16;101397.00;5092151;28;20051;-66
2021/01/15 00:46:27;;;;;;;12.77;9.45;;;;;;;2.77;85.71;101398.38;5112729;28;20052;-65
2021/01/15 00:48:54;;;;;;;13.52;9.00;;;;;;;2.90;84.66;101410.84;5086773;28;20056;-67
2021/01/15 00:51:21;;;;;;;11.02;8.02;;;;;;;2.71;85.09;101414.88;5085862;28;20044;-65
2021/01/15 00:53:48;;;;;;;14.50;10.88;;;;;;;2.86;85.16;101415.16;5108551;28;20048;-67
2021/01/15 00:56:19;;;;;;;14.15;10.85;;;;;;;2.86;85.44;101423.31;5087991;28;20048;-65
2021/01/15 00:58:47;;;;;;;13.20;10.20;;;;;;;2.79;85.72;101417.22;5083883;28;20514;-63
2021/01/15 01:01:18;;;;;;;13.38;10.85;;;;;;;3.03;85.23;101421.44;5094226;28;20043;-63
2021/01/15 01:03:50;;;;;;;15.32;11.18;;;;;;;3.03;85.15;101430.41;5079879;28;20589;-62
2021/01/15 01:06:19;;;;;;;11.27;8.80;;;;;;;2.87;84.36;101441.28;5094977;28;20051;-63
2021/01/15 01:08:46;;;;;;;13.90;9.98;;;;;;;2.98;84.63;101438.47;5096298;27;20059;-63
2021/01/15 01:11:18;;;;;;;12.57;9.73;;;;;;;2.86;84.31;101436.91;5095792;28;20407;-63
2021/01/15 01:13:47;;;;;;;13.63;9.65;;;;;;;2.96;83.88;101446.09;5108327;28;20048;-63
2021/01/15 01:16:15;;;;;;;13.18;10.30;;;;;;;2.92;84.88;101449.53;5108421;28;20059;-63
2021/01/15 01:18:42;;;;;;;15.25;11.05;;;;;;;2.99;84.29;101453.75;5096662;28;20113;-64
2021/01/15 01:21:10;;;;;;;13.07;8.77;;;;;;;2.56;84.63;101460.81;5112906;28;20522;-63
2021/01/15 01:23:38;;;;;;;11.93;9.15;;;;;;;2.83;84.35;101448.28;5111865;27;20043;-63
2021/01/15 01:26:05;;;;;;;12.57;10.07;;;;;;;2.70;84.72;101465.75;5114267;28;20046;-64
2021/01/15 01:28:32;;;;;;;13.18;9.80;;;;;;;2.92;84.25;101463.97;5129335;27;20055;-63
2021/01/15 01:31:00;;;;;;;13.73;10.48;;;;;;;2.94;83.79;101469.16;5095826;28;20040;-63
2021/01/15 01:33:27;;;;;;;14.23;11.43;;;;;;;3.11;83.83;101484.44;5114148;28;20051;-64
2021/01/15 01:35:54;;;;;;;14.52;10.27;;;;;;;3.20;83.07;101484.84;5096102;28;20051;-65
2021/01/15 01:38:21;;;;;;;11.85;9.48;;;;;;;2.92;82.75;101502.06;5113384;28;20047;-65
2021/01/15 01:40:48;;;;;;;13.38;10.27;;;;;;;2.79;84.22;101505.06;5130135;27;20478;-63
2021/01/15 01:43:15;;;;;;;12.27;9.77;;;;;;;2.96;83.57;101524.16;5113262;28;20394;-64
2021/01/15 01:45:42;;;;;;;13.57;10.45;;;;;;;2.98;83.27;101511.94;5113262;28;20052;-63
2021/01/15 01:48:09;;;;;;;17.63;10.90;;;;;;;3.13;83.53;101525.03;5114040;28;20050;-63
2021/01/15 01:50:41;;;;;;;13.82;10.82;;;;;;;2.79;83.42;101526.81;5095928;28;20489;-64
2021/01/15 01:53:13;;;;;;;14.10;9.40;;;;;;;2.71;82.99;101542.69;5096107;28;20050;-62
2021/01/15 01:55:43;;;;;;;14.80;10.80;;;;;;;2.93;83.49;101554.59;5095370;28;20051;-64
2021/01/15 01:58:10;;;;;;;14.45;10.98;;;;;;;2.93;82.49;101560.84;5095253;28;20063;-64
2021/01/15 02:00:39;;;;;;;15.57;11.88;;;;;;;2.69;84.29;101548.38;5113580;28;20035;-64
2021/01/15 02:03:07;;;;;;;15.88;10.95;;;;;;;2.69;83.43;101547.56;5113500;28;20044;-64
2021/01/15 02:05:35;;;;;;;17.50;12.63;;;;;;;2.94;83.20;101553.50;5113723;28;20040;-63
2021/01/15 02:08:02;;;;;;;14.27;11.23;;;;;;;3.03;82.57;101554.78;5113298;28;20067;-63
2021/01/15 02:11:11;;;;;;;14.80;10.75;;;;;;;2.88;82.79;101565.34;5078314;28;20056;-63
2021/01/15 02:13:51;;;;;;;15.63;11.50;;;;;;;2.81;82.84;101570.94;5050836;28;20060;-62
2021/01/15 02:16:21;;;;;;;15.95;12.23;;;;;;;2.69;82.98;101567.44;5050289;28;20067;-62
2021/01/15 02:18:54;;;;;;;17.20;13.02;;;;;;;2.75;83.57;101579.25;5051449;28;20057;-63
2021/01/15 02:21:46;;;;;;;17.02;12.85;;;;;;;2.65;83.04;101577.13;5035017;28;20056;-63
2021/01/15 02:24:35;;;;;;;17.15;12.13;;;;;;;2.57;82.83;101595.72;5052123;28;20049;-63
2021/01/15 02:27:20;;;;;;;19.00;13.07;;;;;;;2.56;83.30;101591.34;5052746;28;20045;-63
2021/01/15 02:30:17;;;;;;;18.27;13.98;;;;;;;2.99;82.48;101595.25;5050976;28;20495;-63
2021/01/15 02:33:17;;;;;;;17.50;13.20;;;;;;;2.93;81.97;101603.56;5052582;28;20508;-63
2021/01/15 02:36:06;;;;;;;16.77;12.50;;;;;;;2.68;81.46;101609.31;5038588;28;20057;-64
2021/01/15 02:38:40;;;;;;;21.00;12.43;;;;;;;2.89;80.68;101610.53;5051248;28;20443;-63
2021/01/15 02:41:28;;;;;;;17.75;13.63;;;;;;;2.80;81.53;101622.88;5051067;28;20096;-64
2021/01/15 02:48:22;;;;;;;22.05;14.23;;;;;;;2.60;81.56;101653.16;5051861;28;20041;-63
2021/01/15 02:50:50;;;;;;;21.73;14.55;;;;;;;2.56;82.20;101645.75;5081540;28;20058;-63
2021/01/15 02:53:17;;;;;;;20.90;14.60;;;;;;;2.70;81.04;101634.38;5095971;28;20062;-65
2021/01/15 02:55:44;;;;;;;23.13;15.38;;;;;;;3.04;80.55;101628.00;5113531;28;20478;-65
2021/01/15 02:58:12;;;;;;;23.25;16.38;;;;;;;2.81;80.63;101636.22;5113694;28;20048;-65
2021/01/15 03:05:20;;;;;;;24.73;16.83;;;;;;;2.90;80.39;101642.13;5113021;28;20051;-63
2021/01/15 03:07:51;;;;;;;27.05;17.40;;;;;;;2.84;80.74;101643.09;5111141;28;20054;-64
2021/01/15 03:10:25;;;;;;;25.40;16.65;;;;;;;2.74;80.91;101654.56;5094712;28;20051;-65
2021/01/15 03:12:53;;;;;;;25.35;18.42;;;;;;;2.76;80.99;101652.44;5095432;28;20044;-68
2021/01/15 03:15:20;;;;;;;24.55;16.27;;;;;;;2.74;80.61;101681.78;5115145;28;20047;-67
2021/01/15 03:17:49;;;;;;;25.80;17.02;;;;;;;2.64;81.16;101669.84;5114317;28;20059;-66
2021/01/15 03:20:16;;;;;;;24.83;17.67;;;;;;;2.74;81.42;101672.78;5096952;28;20048;-66
2021/01/15 03:22:46;;;;;;;28.65;20.40;;;;;;;2.79;81.22;101670.19;5099054;28;20040;-68
2021/01/15 03:25:14;;;;;;;27.17;19.48;;;;;;;2.91;80.77;101671.00;5099068;28;20070;-68
2021/01/15 03:27:45;;;;;;;25.98;18.45;;;;;;;2.78;80.28;101673.97;5100510;28;20043;-63
2021/01/15 03:30:16;;;;;;;27.83;17.38;;;;;;;2.75;79.94;101679.88;5118402;28;20047;-64
2021/01/15 03:32:44;;;;;;;22.95;16.77;;;;;;;2.85;79.60;101682.81;5117900;28;20505;-64
2021/01/15 03:35:22;;;;;;;26.17;17.33;;;;;;;2.63;80.85;101688.06;5118428;28;20486;-64
2021/01/15 03:38:04;;;;;;;25.63;16.92;;;;;;;2.47;81.48;101680.63;5117933;28;20051;-64
2021/01/15 03:40:33;;;;;;;27.67;18.05;;;;;;;2.68;80.22;101696.34;5101249;28;20051;-64
2021/01/15 03:43:00;;;;;;;28.58;17.60;;;;;;;2.65;80.45;101676.94;5117536;28;20426;-64
2021/01/15 03:45:28;;;;;;;26.45;17.45;;;;;;;2.82;79.74;101691.47;5117115;28;20043;-69
2021/01/15 03:47:55;;;;;;;25.13;16.83;;;;;;;2.91;79.18;101692.75;5098649;28;20051;-69
2021/01/15 03:50:22;;;;;;;27.95;17.92;;;;;;;3.13;78.75;101696.50;5116678;28;20055;-66
2021/01/15 03:52:49;;;;;;;24.42;17.75;;;;;;;3.42;77.84;101698.16;5116043;28;20054;-66
2021/01/15 03:55:16;;;;;;;25.08;17.38;;;;;;;3.25;77.59;101697.28;5116399;28;20060;-66
2021/01/15 03:57:43;;;;;;;23.63;16.60;;;;;;;2.84;78.63;101701.03;5116694;28;20371;-67
2021/01/15 04:00:10;;;;;;;26.30;16.85;;;;;;;2.70;79.55;101712.41;5117047;28;20044;-66
2021/01/15 04:02:37;;;;;;;28.65;18.10;;;;;;;2.58;80.25;101708.88;5118033;28;20043;-66
2021/01/15 04:05:08;;;;;;;29.38;18.30;;;;;;;2.64;81.13;101706.03;5117607;28;20047;-64
2021/01/15 04:07:35;;;;;;;31.15;18.90;;;;;;;2.77;80.44;101724.00;5116406;28;20414;-66
2021/01/15 04:10:03;;;;;;;26.70;18.23;;;;;;;2.67;80.23;101715.63;5115690;28;20418;-65
2021/01/15 04:12:30;;;;;;;31.17;18.38;;;;;;;2.79;79.92;101730.03;5116499;28;20047;-63
2021/01/15 04:14:57;;;;;;;27.92;18.38;;;;;;;2.78;80.18;101729.19;5115664;28;20048;-64
2021/01/15 04:17:24;;;;;;;29.27;18.63;;;;;;;2.75;80.10;101731.56;5130931;27;20484;-63
2021/01/15 04:19:51;;;;;;;28.20;18.20;;;;;;;2.83;79.71;101723.88;5097612;28;20056;-63
2021/01/15 04:22:18;;;;;;;29.92;19.45;;;;;;;2.72;80.66;101734.78;5097295;28;20051;-62
2021/01/15 04:24:45;;;;;;;31.80;19.60;;;;;;;2.62;80.61;101727.19;5114737;28;20066;-65
2021/01/15 04:27:12;;;;;;;29.17;18.50;;;;;;;2.58;80.39;101728.72;5115759;28;20486;-63
2021/01/15 04:29:39;;;;;;;30.98;19.60;;;;;;;2.63;80.38;101726.16;5114957;28;20489;-63
2021/01/15 04:32:06;;;;;;;29.35;20.05;;;;;;;2.65;80.41;101736.78;5113687;28;20056;-63
2021/01/15 04:34:33;;;;;;;31.08;21.42;;;;;;;2.65;79.79;101739.50;5114556;28;20051;-62
2021/01/15 04:37:00;;;;;;;35.50;19.80;;;;;;;2.56;79.84;101740.91;5115578;28;20148;-63
2021/01/15 04:39:27;;;;;;;29.73;18.85;;;;;;;2.56;79.53;101740.91;5114938;28;20050;-66
2021/01/15 04:41:54;;;;;;;30.65;19.88;;;;;;;2.50;79.97;101755.44;5115321;28;20048;-63
2021/01/15 04:44:21;;;;;;;37.70;20.83;;;;;;;2.52;79.96;101745.16;5097944;28;20067;-62
2021/01/15 04:46:49;;;;;;;31.90;21.25;;;;;;;2.69;80.40;101754.25;5098010;28;20043;-63
2021/01/15 04:49:20;;;;;;;33.78;20.05;;;;;;;2.74;78.81;101773.41;5116028;28;20051;-63
2021/01/15 04:51:51;;;;;;;34.88;21.33;;;;;;;2.66;78.92;101762.91;5097793;28;20378;-63
2021/01/15 04:54:27;;;;;;;37.90;21.90;;;;;;;2.69;79.02;101776.84;5097759;28;20055;-63
2021/01/15 04:56:55;;;;;;;35.25;21.25;;;;;;;2.60;79.09;101789.16;5097459;28;20474;-69
2021/01/15 04:59:22;;;;;;;37.28;21.48;;;;;;;2.50;79.24;101788.91;5115016;28;20052;-63
2021/01/15 05:06:29;;;;;;;41.70;22.58;;;;;;;2.21;80.58;101785.16;5032396;28;20050;-68
2021/01/15 05:09:00;;;;;;;37.55;22.38;;;;;;;2.46;80.15;101787.69;5049121;28;20056;-67
2021/01/15 05:11:27;;;;;;;41.45;23.55;;;;;;;2.51;79.60;101776.16;5015185;28;20460;-65
2021/01/15 05:13:54;;;;;;;37.10;22.50;;;;;;;2.78;79.22;101780.06;5014545;28;20049;-66
2021/01/15 05:20:45;;;;;;;37.85;23.70;;;;;;;2.94;78.13;101776.63;5096149;28;20051;-64
2021/01/15 05:23:12;;;;;;;40.92;23.60;;;;;;;2.98;76.97;101794.16;5113864;28;20074;-65
2021/01/15 05:25:48;;;;;;;42.70;24.10;;;;;;;2.60;77.98;101782.91;5113771;28;20055;-66
2021/01/15 05:28:15;;;;;;;40.78;26.15;;;;;;;2.62;78.90;101789.75;5114134;28;20049;-66
2021/01/15 05:30:43;;;;;;;41.20;25.15;;;;;;;3.05;77.89;101797.56;5114346;28;20059;-65
2021/01/15 05:33:12;;;;;;;45.83;26.10;;;;;;;2.92;77.00;101798.63;5114301;28;20386;-65
2021/01/15 05:35:48;;;;;;;44.67;25.98;;;;;;;2.65;78.45;101797.41;5113877;28;20048;-64
2021/01/15 05:38:16;;;;;;;42.47;25.40;;;;;;;2.82;78.19;101800.28;5114467;28;20054;-66
2021/01/15 05:40:44;;;;;;;45.90;28.02;;;;;;;2.76;78.51;101795.78;5114170;28;20055;-65
2021/01/15 05:43:18;;;;;;;42.78;25.05;;;;;;;2.54;78.35;101800.97;5113329;28;20048;-62
2021/01/15 05:46:06;;;;;;;43.53;26.50;;;;;;;2.52;78.88;101799.53;5113757;28;20050;-64
2021/01/15 05:48:34;;;;;;;42.67;26.35;;;;;;;2.68;78.32;101823.34;5114131;28;20394;-64
2021/01/15 05:51:02;;;;;;;47.72;27.60;;;;;;;2.38;78.64;101819.84;5114125;28;20047;-65
2021/01/15 05:53:41;;;;;;;46.22;28.35;;;;;;;2.38;78.59;101826.13;5096199;28;20490;-62
2021/01/15 05:56:08;;;;;;;45.40;26.40;;;;;;;2.53;78.58;101831.94;5113796;28;20425;-63
2021/01/15 05:58:36;;;;;;;43.53;26.20;;;;;;;2.65;77.51;101853.72;5113548;28;20058;-64
2021/01/15 06:01:03;;;;;;;45.92;26.40;;;;;;;2.71;77.00;101839.19;5113352;28;20483;-64
2021/01/15 06:03:30;;;;;;;40.00;25.42;;;;;;;2.37;77.72;101850.81;5113597;28;20054;-63
2021/01/15 06:05:57;;;;;;;44.03;26.23;;;;;;;2.41;77.50;101871.88;5094553;28;20402;-63
2021/01/15 06:08:24;;;;;;;39.70;24.80;;;;;;;2.36;77.92;101869.00;5094965;28;20043;-63
2021/01/15 06:10:51;;;;;;;45.08;27.13;;;;;;;2.53;77.10;101899.91;5095780;28;20048;-64
2021/01/15 06:13:37;;;;;;;41.08;27.40;;;;;;;2.69;76.25;101869.34;5112962;28;20486;-63
2021/01/15 06:16:05;;;;;;;45.97;26.85;;;;;;;2.87;75.67;101871.97;5113162;28;20395;-63
2021/01/15 06:18:32;;;;;;;46.15;28.40;;;;;;;2.95;75.68;101882.50;5112934;28;20453;-64
2021/01/15 06:21:13;;;;;;;45.13;27.80;;;;;;;2.76;75.35;101883.66;5113084;28;20482;-64
2021/01/15 06:23:41;;;;;;;44.35;29.70;;;;;;;2.63;76.28;101873.00;5095540;28;20051;-64
2021/01/15 06:26:09;;;;;;;44.75;27.95;;;;;;;2.56;76.05;101890.47;5113506;28;20390;-63
2021/01/15 06:28:37;;;;;;;43.85;27.35;;;;;;;2.62;75.82;101890.38;5113556;28;20044;-65
2021/01/15 06:31:09;;;;;;;45.63;25.80;;;;;;;2.54;76.03;101887.16;5096137;28;20048;-63
2021/01/15 06:33:57;;;;;;;49.85;29.90;;;;;;;2.78;75.98;101897.03;5093265;28;20059;-67
2021/01/15 06:36:44;;;;;;;52.15;30.88;;;;;;;2.45;76.22;101918.44;5106853;28;20155;-64
2021/01/15 06:39:11;;;;;;;51.50;30.63;;;;;;;2.68;75.99;101907.66;5113622;28;20044;-63
2021/01/15 06:41:40;;;;;;;52.35;31.17;;;;;;;2.75;75.25;101916.56;5112642;28;20055;-64
2021/01/15 06:44:13;;;;;;;48.97;31.55;;;;;;;2.90;75.17;101935.97;5095718;28;20036;-63
2021/01/15 06:46:43;;;;;;;47.53;30.83;;;;;;;2.97;74.32;101920.38;5129173;28;20052;-63
2021/01/15 06:49:15;;;;;;;49.67;30.55;;;;;;;2.70;74.98;101930.03;5113642;28;20364;-64
2021/01/15 06:51:53;;;;;;;49.78;30.52;;;;;;;2.58;75.23;101937.31;5113933;28;20395;-63
2021/01/15 06:54:35;;;;;;;45.15;29.17;;;;;;;2.53;75.80;101943.44;5114619;28;20509;-63
2021/01/15 06:57:13;;;;;;;49.38;30.52;;;;;;;2.59;75.37;101947.97;5098844;28;20066;-65
2021/01/15 06:59:51;;;;;;;46.65;29.48;;;;;;;2.43;75.62;101962.19;5117569;28;20043;-62
2021/01/15 07:02:26;;;;;;;47.92;27.73;;;;;;;2.15;76.69;101970.06;5117793;28;20051;-63
2021/01/15 07:04:58;;;;;;;48.67;28.27;;;;;;;2.17;76.41;101962.53;5099831;28;20062;-63
2021/01/15 07:07:30;;;;;;;46.35;29.10;;;;;;;2.33;76.30;101961.06;5099603;28;20051;-65
2021/01/15 07:10:02;;;;;;;48.50;30.40;;;;;;;2.36;77.39;101971.47;5117059;28;20051;-64
2021/01/15 07:12:42;;;;;;;50.03;28.52;;;;;;;2.34;76.18;101973.63;5098539;28;20051;-65
2021/01/15 07:15:14;;;;;;;46.15;28.65;;;;;;;2.32;75.46;101968.38;5116662;28;20048;-64
2021/01/15 07:17:48;;;;;;;50.35;29.13;;;;;;;2.44;75.65;101976.63;5116618;28;20040;-65
2021/01/15 07:20:17;;;;;;;44.13;27.05;;;;;;;2.37;75.82;101984.88;5116868;28;20394;-64
2021/01/15 07:22:51;;;;;;;48.15;31.17;;;;;;;2.33;75.19;101980.09;5116034;28;20055;-64
2021/01/15 07:25:20;;;;;;;53.63;30.23;;;;;;;2.34;75.70;101998.09;5116507;28;20047;-63
2021/01/15 07:27:47;;;;;;;44.72;29.13;;;;;;;2.52;75.08;102006.22;5116629;28;20059;-63
2021/01/15 07:30:20;;;;;;;48.17;27.83;;;;;;;2.57;74.30;102014.50;5116160;28;20055;-65
2021/01/15 07:32:49;;;;;;;39.15;25.02;;;;;;;2.17;74.31;102006.00;5115916;28;20494;-64
2021/01/15 07:35:18;;;;;;;39.38;25.25;;;;;;;2.31;74.25;102004.81;5087895;28;20400;-65
2021/01/15 07:37:45;;;;;;;42.03;26.92;;;;;;;2.48;73.73;102021.31;5073659;28;20500;-64
2021/01/15 07:40:21;;;;;;;42.70;25.75;;;;;;;2.49;73.96;102028.44;5075552;28;20040;-64
2021/01/15 07:42:57;;;;;;;39.70;25.60;;;;;;;2.21;74.36;102028.97;5076234;28;20055;-65
2021/01/15 07:45:25;;;;;;;42.22;26.85;;;;;;;2.13;74.64;102043.69;5076359;28;20057;-65
2021/01/15 07:48:13;;;;;;;45.70;27.23;;;;;;;2.29;74.18;102036.81;5076029;28;20487;-65
2021/01/15 07:50:43;;;;;;;43.78;27.13;;;;;;;2.23;74.44;102035.03;5075195;28;20044;-65
2021/01/15 07:53:15;;;;;;;43.97;28.30;;;;;;;2.45;74.27;102051.69;5077325;28;20049;-64
2021/01/15 07:56:02;;;;;;;46.35;28.23;;;;;;;2.33;74.52;102050.78;5077098;28;20049;-64
2021/01/15 07:58:38;;;;;;;45.80;29.25;;;;;;;2.32;74.91;102051.84;5075713;28;20048;-65
2021/01/15 08:05:32;;;;;;;49.45;31.17;;;;;;;2.06;77.78;102080.13;5073841;28;20041;-65
2021/01/15 08:08:16;;;;;;;52.17;32.20;;;;;;;2.07;78.05;102085.38;5075064;28;20059;-63
2021/01/15 08:10:45;;;;;;;55.08;33.88;;;;;;;2.14;79.02;102099.69;5074499;28;20052;-61
2021/01/15 08:13:26;;;;;;;51.05;31.85;;;;;;;1.98;79.61;102092.13;5074022;28;20373;-63
2021/01/15 08:15:56;;;;;;;51.63;32.67;;;;;;;2.18;79.36;102105.50;5075095;28;20057;-63
2021/01/15 08:18:24;;;;;;;51.15;30.85;;;;;;;2.12;78.28;102112.69;5074899;28;20045;-62
2021/01/15 08:20:53;;;;;;;49.78;31.92;;;;;;;2.00;78.11;102102.78;5074580;28;20048;-65
2021/01/15 08:23:23;;;;;;;51.42;33.47;;;;;;;2.02;77.74;102114.25;5075075;28;20064;-62
2021/01/15 08:26:03;;;;;;;49.95;32.22;;;;;;;2.34;77.21;102117.72;5073473;28;20052;-65
2021/01/15 08:28:32;;;;;;;46.22;29.45;;;;;;;2.34;75.68;102129.41;5074855;28;20391;-64
2021/01/15 08:31:06;;;;;;;44.70;28.38;;;;;;;2.23;75.57;102117.38;5073854;28;20067;-64
2021/01/15 08:33:34;;;;;;;51.70;30.60;;;;;;;2.20;75.65;102119.72;5074450;28;20079;-63
2021/01/15 08:36:03;;;;;;;44.15;28.95;;;;;;;2.03;76.12;102124.91;5100897;28;20055;-63
2021/01/15 08:38:33;;;;;;;45.78;28.63;;;;;;;1.78;76.62;102143.06;5114960;28;20040;-64
2021/01/15 08:41:14;;;;;;;40.88;24.13;;;;;;;1.67;76.36;102137.53;5109796;28;20051;-64
2021/01/15 08:43:42;;;;;;;44.17;26.52;;;;;;;2.02;75.94;102160.44;5096729;28;20047;-65
2021/01/15 08:46:16;;;;;;;41.80;25.83;;;;;;;1.93;75.18;102151.75;5114405;28;20051;-64
2021/01/15 08:48:47;;;;;;;40.47;26.33;;;;;;;1.97;75.72;102152.94;5096585;28;20367;-64
2021/01/15 08:51:20;;;;;;;40.13;25.70;;;;;;;1.90;75.19;102156.78;5114822;28;20486;-64
2021/01/15 08:54:07;;;;;;;43.05;24.58;;;;;;;2.04;75.05;102166.50;5113824;28;20583;-64
2021/01/15 08:56:42;;;;;;;39.83;24.15;;;;;;;2.11;74.40;102170.00;5096521;28;20048;-66
2021/01/15 08:59:11;;;;;;;37.00;23.80;;;;;;;2.06;74.02;102178.78;5096599;28;20051;-66
2021/01/15 09:01:42;;;;;;;37.15;23.15;;;;;;;1.79;74.08;102177.34;5114222;28;20050;-64
2021/01/15 09:04:11;;;;;;;38.15;23.17;;;;;;;1.91;74.02;102186.44;5096455;28;20059;-64
2021/01/15 09:06:40;;;;;;;38.33;23.83;;;;;;;1.73;74.80;102183.66;5097079;28;20074;-63
2021/01/15 09:09:09;;;;;;;37.28;23.10;;;;;;;1.91;74.23;102193.75;5113999;28;20478;-65
2021/01/15 09:11:40;;;;;;;39.60;22.45;;;;;;;1.84;74.93;102198.41;5090927;28;20051;-64
2021/01/15 09:14:12;;;;;;;35.45;22.58;;;;;;;1.90;73.49;102205.69;5114594;28;20056;-63
2021/01/15 09:16:40;;;;;;;31.92;20.95;;;;;;;1.87;74.42;102208.81;5113990;28;20055;-63
2021/01/15 09:19:10;;;;;;;34.97;20.77;;;;;;;2.03;73.45;102202.84;5113963;28;20420;-65
2021/01/15 09:21:46;;;;;;;35.37;20.13;;;;;;;1.92;73.42;102206.28;5096038;28;20048;-64
2021/01/15 09:24:14;;;;;;;30.95;19.27;;;;;;;2.09;72.88;102223.72;5113080;28;20051;-64
2021/01/15 09:26:44;;;;;;;35.55;19.67;;;;;;;1.89;73.70;102223.88;5114246;28;20070;-66
2021/01/15 09:29:12;;;;;;;33.30;19.35;;;;;;;1.90;73.00;102230.94;5113749;28;20047;-64
2021/01/15 09:31:43;;;;;;;33.83;20.30;;;;;;;1.94;73.24;102234.06;5113996;28;20345;-67
2021/01/15 09:34:12;;;;;;;34.38;19.70;;;;;;;1.84;72.87;102233.72;5095787;28;20054;-63
2021/01/15 09:36:41;;;;;;;30.90;18.33;;;;;;;1.99;72.14;102242.38;5114063;28;20051;-68
2021/01/15 09:39:10;;;;;;;31.17;19.27;;;;;;;1.65;73.36;102240.94;5096475;28;20054;-63
2021/01/15 09:41:50;;;;;;;39.83;19.35;;;;;;;1.96;72.84;102245.56;5113312;28;20070;-63
2021/01/15 09:44:22;;;;;;;28.98;18.60;;;;;;;2.17;72.59;102251.47;5114873;28;20058;-64
2021/01/15 09:46:50;;;;;;;31.67;19.42;;;;;;;1.86;72.32;102253.34;5114103;28;20050;-64
2021/01/15 09:49:21;;;;;;;33.70;19.52;;;;;;;1.77;72.24;102276.38;5113857;28;20406;-64
2021/01/15 09:51:50;;;;;;;31.70;19.35;;;;;;;1.90;72.66;102273.63;5113414;28;20051;-63
2021/01/15 09:54:19;;;;;;;33.63;18.90;;;;;;;2.15;71.54;102278.03;5096321;28;20066;-64
2021/01/15 09:56:47;;;;;;;30.20;18.63;;;;;;;2.14;71.26;102289.13;5095349;28;20047;-66
2021/01/15 09:59:17;;;;;;;29.90;18.30;;;;;;;1.88;71.57;102287.38;5113550;28;20044;-65
2021/01/15 10:01:48;;;;;;;31.08;18.20;;;;;;;2.11;70.84;102281.41;5112810;28;20044;-65
2021/01/15 10:04:16;;;;;;;36.10;19.17;;;;;;;2.08;70.94;102281.84;5113540;28;20056;-71
2021/01/15 10:06:45;;;;;;;25.75;17.17;;;;;;;1.81;70.89;102285.78;5113137;28;20040;-63
2021/01/15 10:09:13;;;;;;;32.38;18.30;;;;;;;1.87;71.69;102295.75;5113380;28;20048;-62
2021/01/15 10:11:47;;;;;;;29.70;17.67;;;;;;;1.82;70.87;102290.16;5113459;28;20483;-63
2021/01/15 10:14:16;;;;;;;29.50;17.65;;;;;;;1.78;71.22;102287.03;5113118;28;20060;-64
2021/01/15 10:16:49;;;;;;;30.52;17.63;;;;;;;1.88;70.55;102287.38;5113308;28;20059;-63
2021/01/15 10:19:17;;;;;;;31.08;18.50;;;;;;;1.92;71.10;102285.91;5113492;28;20051;-64
2021/01/15 10:21:45;;;;;;;26.60;16.58;;;;;;;2.04;70.57;102286.88;5094600;28;20406;-65
2021/01/15 10:24:13;;;;;;;29.02;18.25;;;;;;;2.13;70.38;102309.19;5095749;28;20048;-65
2021/01/15 10:26:41;;;;;;;27.90;17.45;;;;;;;1.99;70.67;102304.88;5113750;28;20055;-64
2021/01/15 10:29:10;;;;;;;30.98;18.17;;;;;;;1.99;70.65;102308.44;5113393;28;20044;-66
2021/01/15 10:36:10;;;;;;;33.30;19.23;;;;;;;2.11;71.46;102303.16;5101375;28;20051;-66
2021/01/15 10:38:37;;;;;;;33.25;19.17;;;;;;;2.26;70.77;102323.53;5095159;28;20043;-70
2021/01/15 10:41:06;;;;;;;31.48;19.33;;;;;;;2.16;69.98;102311.47;5097028;28;20067;-68
2021/01/15 10:43:33;;;;;;;27.55;18.38;;;;;;;2.26;70.07;102314.53;5096956;28;20044;-65
2021/01/15 10:46:02;;;;;;;30.20;18.98;;;;;;;2.09;70.47;102313.41;5096743;28;20047;-66
2021/01/15 10:53:08;;;;;;;29.67;18.98;;;;;;;2.61;69.30;102314.91;5097086;28;20055;-66
2021/01/15 10:55:41;;;;;;;35.03;18.25;;;;;;;2.56;68.49;102312.03;5097147;28;20059;-68
2021/01/15 10:58:08;;;;;;;29.08;18.05;;;;;;;2.36;69.64;102319.47;5097457;28;20063;-67
2021/01/15 11:00:35;;;;;;;31.00;17.92;;;;;;;2.63;68.59;102329.13;5095367;28;20048;-67
2021/01/15 11:07:26;;;;;;;31.38;17.13;;;;;;;2.45;67.99;102323.59;5097079;28;20052;-66
2021/01/15 11:09:55;;;;;;;30.05;17.45;;;;;;;2.39;68.48;102332.66;5097194;28;20510;-66
2021/01/15 11:12:23;;;;;;;28.73;17.67;;;;;;;2.56;68.18;102325.63;5096362;28;20063;-64
2021/01/15 11:14:49;;;;;;;26.75;16.42;;;;;;;2.75;67.29;102339.06;5096589;28;20168;-67
2021/01/15 11:17:16;;;;;;;31.02;17.48;;;;;;;2.42;68.24;102327.63;5096507;28;20402;-69
2021/01/15 11:19:43;;;;;;;31.52;17.10;;;;;;;2.54;68.21;102333.16;5096265;28;20052;-68
2021/01/15 11:22:10;;;;;;;28.20;17.05;;;;;;;2.43;68.43;102329.25;5094750;28;20067;-67
2021/01/15 11:24:37;;;;;;;26.05;16.75;;;;;;;2.73;68.13;102327.56;5094886;28;20070;-65
2021/01/15 11:27:04;;;;;;;29.10;16.98;;;;;;;2.54;67.37;102327.72;5097356;28;20052;-69
2021/01/15 11:29:31;;;;;;;25.95;15.02;;;;;;;2.60;67.56;102338.53;5096307;28;20059;-68
2021/01/15 11:31:59;;;;;;;22.83;13.82;;;;;;;2.83;66.81;102333.31;5096150;27;20052;-65
2021/01/15 11:39:11;;;;;;;20.95;11.52;;;;;;;2.82;64.29;102322.66;5075486;28;20388;-62
2021/01/15 11:41:38;;;;;;;22.00;12.05;;;;;;;2.71;63.98;102337.00;5056679;28;20055;-66
2021/01/15 11:44:06;;;;;;;20.23;12.32;;;;;;;2.89;64.04;102334.31;5075774;28;20052;-64
2021/01/15 11:46:34;;;;;;;17.83;11.25;;;;;;;2.71;63.33;102334.25;5075214;28;20048;-68
2021/01/15 11:53:11;;;;;;;24.98;11.95;;;;;;;3.02;63.86;102332.31;5075256;28;19923;-66
2021/01/15 11:55:41;;;;;;;20.60;12.00;;;;;;;3.01;63.68;102324.38;5075798;28;20111;-67
2021/01/15 11:58:08;;;;;;;18.98;12.25;;;;;;;3.07;63.06;102337.06;5075432;28;20044;-65
2021/01/15 12:00:38;;;;;;;24.23;11.82;;;;;;;3.06;62.73;102329.97;5076657;28;20052;-66
2021/01/15 12:03:05;;;;;;;21.02;13.32;;;;;;;3.21;63.15;102322.25;5075351;28;20471;-65
2021/01/15 12:05:32;;;;;;;22.13;12.18;;;;;;;3.32;62.97;102333.25;5075673;28;20053;-64
2021/01/15 12:07:59;;;;;;;18.10;11.15;;;;;;;3.11;63.01;102325.53;5074785;28;20498;-64
2021/01/15 12:10:27;;;;;;;19.85;11.98;;;;;;;3.26;62.16;102320.53;5075202;28;20047;-63
2021/01/15 12:12:54;;;;;;;30.30;11.77;;;;;;;3.47;61.95;102318.44;5075185;28;20067;-63
2021/01/15 12:15:21;;;;;;;19.77;11.93;;;;;;;3.62;61.50;102327.03;5075540;28;20512;-64
2021/01/15 12:17:48;;;;;;;24.70;10.40;;;;;;;3.35;61.45;102323.78;5074336;28;20040;-63
2021/01/15 12:20:16;;;;;;;17.15;10.27;;;;;;;3.15;61.53;102324.03;5075098;28;20048;-62